Time;durP1;ratioP1;P1;durP2;ratioP2;P2;SDS_P1;SDS_P2;PMS_P1;PMS_P2;Temp;Humidity;BMP_temperature;BMP_pressure;BME280_temperature;BME280_humidity;BME280_pressure;Samples;Min_cycle;Max_cycle;Signal;HPM_P1;HPM_P2
2021/07/30 00:01:58;;;;;;;23.50;7.42;;;;;;;14.72;69.02;98527.31;2210522;81;21453;-59
2021/07/30 00:04:59;;;;;;;23.83;8.68;;;;;;;14.68;68.88;98527.21;2210087;81;21015;-60
2021/07/30 00:07:59;;;;;;;19.98;6.35;;;;;;;14.67;68.92;98529.52;2210563;81;20963;-60
2021/07/30 00:11:00;;;;;;;24.12;9.70;;;;;;;14.63;68.95;98522.32;2210258;81;20986;-63
2021/07/30 00:14:00;;;;;;;27.87;12.93;;;;;;;14.57;68.94;98520.16;2210323;81;21551;-60
2021/07/30 00:17:01;;;;;;;26.97;11.85;;;;;;;14.52;69.21;98523.19;2210384;81;20974;-61
2021/07/30 00:20:01;;;;;;;38.42;15.25;;;;;;;14.47;69.44;98516.61;2210487;81;20970;-59
2021/07/30 00:23:02;;;;;;;28.20;10.20;;;;;;;14.46;69.63;98518.39;2210545;81;21038;-60
2021/07/30 00:26:02;;;;;;;23.60;9.10;;;;;;;14.45;69.65;98519.38;2210329;81;21018;-59
2021/07/30 00:29:03;;;;;;;18.10;6.20;;;;;;;14.45;69.66;98517.20;2210431;81;21042;-60
2021/07/30 00:32:04;;;;;;;21.52;7.33;;;;;;;14.38;69.82;98508.97;2209961;81;21031;-60
2021/07/30 00:35:04;;;;;;;20.68;7.25;;;;;;;14.34;69.74;98518.09;2222504;80;21017;-59
2021/07/30 00:38:05;;;;;;;21.10;7.05;;;;;;;14.30;70.22;98509.58;2227451;80;21119;-60
2021/07/30 00:41:05;;;;;;;19.62;6.47;;;;;;;14.28;70.33;98511.98;2227844;80;20976;-61
2021/07/30 00:44:06;;;;;;;22.37;6.85;;;;;;;14.24;70.44;98511.86;2227517;80;20975;-62
2021/07/30 00:47:06;;;;;;;19.85;6.83;;;;;;;14.26;70.54;98508.64;2227586;80;20957;-59
2021/07/30 00:50:07;;;;;;;22.22;7.25;;;;;;;14.24;70.54;98510.09;2227545;80;21572;-61
2021/07/30 00:53:07;;;;;;;24.47;7.00;;;;;;;14.21;70.88;98515.13;2227582;80;21033;-62
2021/07/30 00:56:08;;;;;;;19.48;6.47;;;;;;;14.17;70.81;98512.38;2227696;80;21012;-61
2021/07/30 00:59:09;;;;;;;22.90;6.60;;;;;;;14.17;70.93;98512.38;2227826;80;21053;-59
2021/07/30 01:02:09;;;;;;;20.77;6.50;;;;;;;14.16;70.98;98511.18;2227572;80;21060;-60
2021/07/30 01:05:10;;;;;;;19.95;6.72;;;;;;;14.15;71.13;98513.45;2227393;80;21488;-59
2021/07/30 01:08:11;;;;;;;20.10;6.50;;;;;;;14.22;71.19;98508.03;2227372;80;21025;-61
2021/07/30 01:11:11;;;;;;;19.92;6.75;;;;;;;14.17;70.83;98506.27;2227584;80;21036;-59
2021/07/30 01:14:12;;;;;;;19.07;7.17;;;;;;;14.06;70.95;98501.84;2227748;80;20977;-68
2021/07/30 01:17:12;;;;;;;20.95;7.30;;;;;;;14.00;71.23;98504.98;2227549;80;21008;-59
2021/07/30 01:20:13;;;;;;;21.33;7.12;;;;;;;13.97;71.30;98506.55;2227430;80;20969;-62
2021/07/30 01:23:13;;;;;;;19.45;6.47;;;;;;;13.93;71.57;98506.44;2227493;80;21520;-59
2021/07/30 01:26:14;;;;;;;21.80;6.62;;;;;;;13.92;71.75;98502.98;2227384;80;21012;-61
2021/07/30 01:29:14;;;;;;;22.17;6.97;;;;;;;13.92;71.73;98502.12;2227659;80;20996;-59
2021/07/30 01:32:15;;;;;;;20.27;7.12;;;;;;;13.89;71.72;98503.69;2227243;80;21088;-59
2021/07/30 01:35:16;;;;;;;24.15;7.33;;;;;;;13.84;72.00;98500.94;2220157;80;21010;-60
2021/07/30 01:38:16;;;;;;;35.17;18.00;;;;;;;13.83;72.07;98497.96;2217459;80;20942;-58
2021/07/30 01:41:17;;;;;;;38.90;18.10;;;;;;;13.82;72.05;98500.23;2217412;80;20953;-59
2021/07/30 01:44:17;;;;;;;24.77;9.53;;;;;;;13.81;72.13;98496.41;2217082;80;21021;-62
2021/07/30 01:47:20;;;;;;;20.50;7.80;;;;;;;13.79;72.49;98500.48;2217174;80;21440;-58
2021/07/30 01:50:21;;;;;;;19.98;7.08;;;;;;;13.76;72.57;98497.23;2216992;80;21101;-59
2021/07/30 01:53:21;;;;;;;23.45;7.45;;;;;;;13.78;72.42;98490.89;2217206;80;21009;-58
2021/07/30 01:56:21;;;;;;;20.43;6.85;;;;;;;13.77;72.17;98497.60;2216656;80;21464;-60
2021/07/30 01:59:22;;;;;;;21.68;7.30;;;;;;;13.71;72.38;98498.92;2217306;80;21064;-59
2021/07/30 02:02:23;;;;;;;18.67;6.47;;;;;;;13.70;72.55;98501.19;2217173;80;21001;-63
2021/07/30 02:05:23;;;;;;;19.57;6.55;;;;;;;13.64;72.59;98495.92;2217263;80;20986;-58
2021/07/30 02:08:24;;;;;;;20.10;7.28;;;;;;;13.65;72.74;98498.92;2217049;80;21000;-59
2021/07/30 02:11:24;;;;;;;21.05;7.60;;;;;;;13.64;72.62;98503.83;2217266;80;20993;-59
2021/07/30 02:14:26;;;;;;;21.20;7.10;;;;;;;13.60;72.59;98504.20;2217354;80;21468;-58
2021/07/30 02:17:26;;;;;;;21.02;7.47;;;;;;;13.57;72.75;98505.76;2217641;80;21045;-59
2021/07/30 02:20:27;;;;;;;22.50;6.90;;;;;;;13.54;72.75;98506.83;2217181;80;21013;-60
2021/07/30 02:23:27;;;;;;;18.95;6.67;;;;;;;13.53;72.90;98509.09;2217346;80;20993;-59
2021/07/30 02:26:28;;;;;;;21.48;7.08;;;;;;;13.50;72.97;98500.13;2217007;80;21473;-59
2021/07/30 02:29:29;;;;;;;20.30;7.17;;;;;;;13.51;73.30;98507.08;2217334;80;21060;-59
2021/07/30 02:32:29;;;;;;;22.40;7.55;;;;;;;13.45;73.42;98513.66;2217502;80;20969;-59
2021/07/30 02:35:29;;;;;;;20.65;7.53;;;;;;;13.48;73.41;98513.91;2217094;80;20989;-59
2021/07/30 02:38:30;;;;;;;18.48;6.37;;;;;;;13.41;72.76;98516.66;2217379;80;20998;-58
2021/07/30 02:41:30;;;;;;;20.45;6.62;;;;;;;13.28;73.14;98516.73;2217249;80;21446;-58
2021/07/30 02:44:31;;;;;;;25.90;8.35;;;;;;;13.12;73.46;98519.22;2217517;80;20951;-59
2021/07/30 02:47:31;;;;;;;24.43;7.40;;;;;;;13.12;73.90;98519.72;2217629;80;20981;-58
2021/07/30 02:50:32;;;;;;;19.90;6.78;;;;;;;13.10;73.97;98518.97;2217502;80;21017;-60
2021/07/30 02:53:32;;;;;;;24.45;7.30;;;;;;;13.01;74.32;98521.83;2217322;80;20942;-58
2021/07/30 02:56:33;;;;;;;20.75;6.80;;;;;;;13.02;75.35;98522.69;2217137;80;21025;-58
2021/07/30 02:59:33;;;;;;;21.17;7.62;;;;;;;12.91;74.19;98520.86;2217239;80;21468;-59
2021/07/30 03:02:34;;;;;;;21.65;7.60;;;;;;;12.93;74.48;98521.56;2217495;80;20989;-58
2021/07/30 03:05:34;;;;;;;20.57;7.30;;;;;;;12.97;74.51;98524.33;2217477;80;21013;-58
2021/07/30 03:08:35;;;;;;;24.30;7.40;;;;;;;12.98;74.25;98526.84;2217442;80;20997;-58
2021/07/30 03:11:35;;;;;;;45.75;20.85;;;;;;;12.98;74.33;98530.80;2217340;80;20986;-58
2021/07/30 03:14:38;;;;;;;46.18;22.45;;;;;;;12.99;74.28;98527.70;2217630;80;20978;-61
2021/07/30 03:17:38;;;;;;;26.95;10.15;;;;;;;12.99;75.03;98537.75;2187303;80;21561;-60
2021/07/30 03:20:39;;;;;;;27.02;10.80;;;;;;;12.89;74.47;98531.98;2217402;80;20973;-58
2021/07/30 03:23:39;;;;;;;29.37;11.78;;;;;;;12.90;74.82;98531.88;2217197;80;21002;-59
2021/07/30 03:26:40;;;;;;;26.40;9.70;;;;;;;12.97;74.59;98523.88;2217441;80;20935;-61
2021/07/30 03:29:40;;;;;;;22.58;8.13;;;;;;;13.03;74.89;98527.84;2217331;80;20931;-59
2021/07/30 03:32:41;;;;;;;22.20;7.50;;;;;;;13.12;74.83;98535.02;2217012;80;21425;-57
2021/07/30 03:35:42;;;;;;;22.73;7.95;;;;;;;13.25;74.48;98535.41;2198702;80;20955;-61
2021/07/30 03:38:43;;;;;;;25.83;9.37;;;;;;;13.36;74.65;98532.83;2182473;82;20977;-59
2021/07/30 03:41:43;;;;;;;25.48;9.25;;;;;;;13.51;74.53;98532.94;2182066;82;21098;-58
2021/07/30 03:44:44;;;;;;;24.60;8.93;;;;;;;13.62;74.22;98533.89;2182085;82;21568;-59
2021/07/30 03:47:44;;;;;;;26.05;10.00;;;;;;;13.70;74.14;98530.19;2182020;82;21030;-59
2021/07/30 03:50:44;;;;;;;25.15;7.85;;;;;;;13.81;74.05;98533.30;2187338;80;20992;-60
2021/07/30 03:53:45;;;;;;;23.18;8.53;;;;;;;13.96;74.00;98531.23;2220792;80;20937;-59
2021/07/30 03:56:46;;;;;;;24.10;8.03;;;;;;;14.07;73.86;98528.58;2220492;80;21004;-62
2021/07/30 03:59:46;;;;;;;25.77;8.93;;;;;;;14.14;73.71;98525.81;2220709;80;20987;-61
2021/07/30 04:02:47;;;;;;;24.35;8.23;;;;;;;14.30;73.69;98525.90;2220363;80;20992;-59
2021/07/30 04:05:47;;;;;;;23.95;8.90;;;;;;;14.48;73.46;98525.72;2220305;80;21502;-60
2021/07/30 04:08:48;;;;;;;24.12;8.50;;;;;;;14.65;73.25;98526.16;2220954;80;20965;-68
2021/07/30 04:11:49;;;;;;;22.22;8.38;;;;;;;14.79;73.20;98532.94;2220551;80;21051;-63
2021/07/30 04:14:49;;;;;;;20.57;7.03;;;;;;;15.01;73.20;98524.05;2220670;80;20981;-59
2021/07/30 04:17:50;;;;;;;22.45;7.80;;;;;;;15.25;72.92;98528.56;2220546;80;21026;-59
2021/07/30 04:20:51;;;;;;;20.80;6.97;;;;;;;15.51;72.73;98529.46;2220670;80;21015;-59
2021/07/30 04:23:51;;;;;;;28.55;9.23;;;;;;;15.79;72.76;98529.77;2220581;80;21453;-63
2021/07/30 04:26:51;;;;;;;20.10;7.50;;;;;;;15.97;72.41;98528.62;2220602;80;20976;-60
2021/07/30 04:29:52;;;;;;;21.23;7.30;;;;;;;16.19;72.04;98520.10;2220820;80;20980;-61
2021/07/30 04:32:52;;;;;;;21.48;7.90;;;;;;;16.37;71.78;98518.45;2220959;80;20973;-59
2021/07/30 04:35:53;;;;;;;22.75;7.47;;;;;;;16.57;71.86;98523.27;2213888;80;21017;-60
2021/07/30 04:38:53;;;;;;;22.15;7.60;;;;;;;16.78;71.87;98523.64;2210404;81;20964;-61
2021/07/30 04:41:54;;;;;;;21.23;7.92;;;;;;;17.06;71.91;98523.77;2210381;81;21072;-60
2021/07/30 04:44:54;;;;;;;19.70;6.97;;;;;;;17.31;71.88;98517.84;2210234;81;21499;-60
2021/07/30 04:47:54;;;;;;;24.00;7.78;;;;;;;17.62;71.70;98512.78;2210385;81;20997;-61
2021/07/30 04:50:55;;;;;;;22.10;7.78;;;;;;;17.91;71.03;98511.84;2210392;81;20973;-63
2021/07/30 04:53:56;;;;;;;22.93;8.50;;;;;;;18.14;70.85;98512.25;2210374;81;20981;-61
2021/07/30 04:56:56;;;;;;;20.68;7.70;;;;;;;18.38;70.87;98516.16;2210394;81;21033;-66
2021/07/30 04:59:57;;;;;;;22.13;8.40;;;;;;;18.60;70.50;98513.53;2210364;81;20973;-66
2021/07/30 05:02:57;;;;;;;24.82;8.83;;;;;;;18.82;69.88;98512.21;2210342;81;21467;-61
2021/07/30 05:05:57;;;;;;;24.10;8.75;;;;;;;19.10;69.10;98514.80;2210185;81;21522;-60
2021/07/30 05:08:58;;;;;;;23.20;9.53;;;;;;;19.33;68.57;98511.94;2210336;81;20993;-68
2021/07/30 05:11:58;;;;;;;23.98;8.60;;;;;;;19.49;68.19;98505.05;2210378;81;21024;-66
2021/07/30 05:14:59;;;;;;;24.63;9.35;;;;;;;19.64;68.12;98506.60;2210476;81;20953;-66
2021/07/30 05:17:59;;;;;;;25.65;9.88;;;;;;;19.78;67.56;98508.66;2210457;81;21037;-62
2021/07/30 05:21:00;;;;;;;24.30;9.13;;;;;;;19.93;67.37;98506.78;2209861;81;21000;-63
2021/07/30 05:24:02;;;;;;;23.62;9.30;;;;;;;20.08;65.74;98512.64;2188608;81;21468;-64
2021/07/30 05:27:03;;;;;;;23.32;8.50;;;;;;;20.09;64.76;98510.81;2210842;81;21020;-58
2021/07/30 05:30:03;;;;;;;25.12;8.80;;;;;;;20.16;63.38;98509.67;2210173;81;21012;-73
2021/07/30 05:33:04;;;;;;;26.35;8.95;;;;;;;20.25;64.11;98507.34;2210346;81;21044;-70
2021/07/30 05:36:05;;;;;;;24.77;8.77;;;;;;;20.45;62.17;98508.39;2210178;81;21044;-63
2021/07/30 05:39:05;;;;;;;23.95;8.50;;;;;;;20.49;61.19;98511.88;2210268;81;21016;-59
2021/07/30 05:42:06;;;;;;;26.95;9.35;;;;;;;20.51;61.28;98509.88;2210117;81;20965;-59
2021/07/30 05:45:06;;;;;;;23.52;8.55;;;;;;;20.53;62.04;98503.91;2210272;81;20985;-59
2021/07/30 05:48:07;;;;;;;23.22;8.70;;;;;;;20.64;60.33;98499.24;2210483;81;21008;-68
2021/07/30 05:51:08;;;;;;;21.93;8.23;;;;;;;20.81;60.61;98497.45;2210458;81;21020;-60
2021/07/30 05:54:08;;;;;;;23.73;8.37;;;;;;;20.91;59.11;98502.92;2210526;81;20937;-60
2021/07/30 05:57:08;;;;;;;25.65;8.00;;;;;;;20.87;60.06;98498.09;2210432;81;21479;-60
2021/07/30 06:00:09;;;;;;;24.47;8.58;;;;;;;21.11;58.93;98503.91;2210435;81;20954;-59
2021/07/30 06:03:10;;;;;;;25.97;8.08;;;;;;;21.22;60.10;98505.38;2210685;81;20965;-59
2021/07/30 06:06:10;;;;;;;23.90;7.83;;;;;;;21.35;58.38;98508.85;2210490;81;21017;-59
2021/07/30 06:09:11;;;;;;;24.95;8.13;;;;;;;21.54;57.80;98515.17;2210584;81;20949;-59
2021/07/30 06:12:11;;;;;;;24.92;8.15;;;;;;;21.71;56.08;98519.97;2210597;81;20953;-60
2021/07/30 06:15:12;;;;;;;23.30;7.47;;;;;;;21.69;55.79;98517.13;2208173;81;21008;-64
2021/07/30 06:18:12;;;;;;;23.43;7.60;;;;;;;21.78;55.57;98514.27;2208227;81;21036;-60
2021/07/30 06:21:13;;;;;;;23.27;7.67;;;;;;;21.85;56.06;98515.75;2208529;81;21004;-68
2021/07/30 06:24:13;;;;;;;23.97;7.60;;;;;;;22.17;55.75;98513.06;2209624;81;21004;-61
2021/07/30 06:27:16;;;;;;;21.07;7.65;;;;;;;22.31;55.00;98521.66;2210132;81;20997;-70
2021/07/30 06:30:16;;;;;;;21.50;8.35;;;;;;;21.94;53.67;98516.02;2188438;81;21491;-66
2021/07/30 06:33:18;;;;;;;23.20;8.00;;;;;;;22.02;55.78;98515.66;2210646;81;21008;-63
2021/07/30 06:36:20;;;;;;;24.10;7.65;;;;;;;22.15;53.45;98518.09;2215832;80;21515;-63
2021/07/30 06:39:20;;;;;;;21.07;7.43;;;;;;;22.31;53.97;98515.83;2220952;80;20977;-61
2021/07/30 06:42:22;;;;;;;23.30;7.77;;;;;;;22.44;53.29;98513.94;2220833;80;21043;-61
2021/07/30 06:45:22;;;;;;;25.00;7.80;;;;;;;22.74;53.20;98514.06;2220656;80;21008;-62
2021/07/30 06:48:23;;;;;;;20.50;7.40;;;;;;;22.98;52.16;98510.84;2220861;80;20949;-61
2021/07/30 06:51:23;;;;;;;23.57;7.97;;;;;;;23.22;52.78;98507.13;2220981;80;20969;-59
2021/07/30 06:54:24;;;;;;;22.40;7.20;;;;;;;23.66;53.66;98503.65;2220795;80;21277;-66
2021/07/30 06:57:25;;;;;;;19.60;7.08;;;;;;;24.11;52.17;98504.94;2220805;80;21056;-65
2021/07/30 07:00:25;;;;;;;20.87;7.27;;;;;;;24.49;51.69;98497.19;2220918;80;21019;-61
2021/07/30 07:03:26;;;;;;;19.10;6.50;;;;;;;24.75;51.73;98492.61;2220845;80;21478;-60
2021/07/30 07:06:26;;;;;;;19.53;6.43;;;;;;;25.06;50.25;98491.42;2220847;80;21008;-63
2021/07/30 07:09:27;;;;;;;19.47;6.80;;;;;;;25.24;48.22;98495.78;2220855;80;20972;-60
2021/07/30 07:12:30;;;;;;;19.95;6.87;;;;;;;25.40;48.66;98499.19;2220414;80;21000;-66
2021/07/30 07:15:30;;;;;;;21.00;6.33;;;;;;;25.61;49.78;98491.58;2221191;80;21033;-60
2021/07/30 07:18:31;;;;;;;19.53;6.53;;;;;;;25.79;48.06;98496.42;2220495;80;21051;-60
2021/07/30 07:21:32;;;;;;;21.73;6.87;;;;;;;26.05;46.25;98488.19;2220870;80;21527;-67
2021/07/30 07:24:33;;;;;;;20.10;6.60;;;;;;;26.16;47.99;98483.58;2221037;80;20963;-61
2021/07/30 07:27:33;;;;;;;21.07;6.20;;;;;;;26.17;45.49;98492.45;2221167;80;21011;-62
2021/07/30 07:30:33;;;;;;;17.67;5.87;;;;;;;25.86;44.83;98497.28;2221101;80;20972;-63
2021/07/30 07:33:34;;;;;;;23.50;5.70;;;;;;;25.71;45.54;98489.34;2220959;80;21007;-63
2021/07/30 07:36:34;;;;;;;18.37;5.73;;;;;;;25.94;46.43;98480.97;2214834;80;21008;-60
2021/07/30 07:39:35;;;;;;;18.60;6.13;;;;;;;26.15;45.24;98489.97;2210572;81;21491;-60
2021/07/30 07:42:35;;;;;;;16.97;5.80;;;;;;;26.13;45.27;98483.95;2210600;81;21539;-73
2021/07/30 07:45:36;;;;;;;18.50;6.17;;;;;;;26.26;42.99;98493.91;2210520;81;20984;-69
2021/07/30 07:48:36;;;;;;;21.30;6.53;;;;;;;26.09;43.80;98488.10;2210967;81;20973;-64
2021/07/30 07:51:37;;;;;;;20.80;6.47;;;;;;;26.34;44.87;98499.11;2210797;81;21017;-60
2021/07/30 07:54:37;;;;;;;21.13;6.67;;;;;;;26.44;44.44;98492.00;2210461;81;21075;-68
2021/07/30 07:57:38;;;;;;;20.23;6.40;;;;;;;26.43;43.15;98490.33;2210670;81;20993;-61
2021/07/30 08:00:42;;;;;;;16.13;5.40;;;;;;;26.30;43.64;98494.34;2210353;81;21480;-60
2021/07/30 08:03:45;;;;;;;18.42;5.85;;;;;;;26.38;42.78;98489.61;2210220;81;20953;-61
2021/07/30 08:06:44;;;;;;;17.32;5.72;;;;;;;26.34;43.32;98490.23;2188806;81;20961;-62
2021/07/30 08:09:45;;;;;;;17.73;5.83;;;;;;;26.53;42.51;98481.88;2210701;81;20969;-63
2021/07/30 08:12:45;;;;;;;18.33;5.30;;;;;;;26.82;40.72;98479.84;2210944;81;21058;-61
2021/07/30 08:15:46;;;;;;;15.70;5.20;;;;;;;26.86;40.06;98480.56;2210786;81;21008;-70
2021/07/30 08:18:46;;;;;;;16.60;5.07;;;;;;;26.76;40.84;98475.59;2210642;81;20976;-60
2021/07/30 08:21:47;;;;;;;18.47;5.20;;;;;;;26.67;40.53;98480.84;2210625;81;21080;-65
2021/07/30 08:24:47;;;;;;;18.93;5.37;;;;;;;26.98;40.29;98471.38;2210578;81;21040;-63
2021/07/30 08:27:48;;;;;;;14.67;5.00;;;;;;;27.27;38.88;98476.80;2210651;81;21475;-62
2021/07/30 08:30:48;;;;;;;17.17;5.33;;;;;;;27.02;37.58;98469.08;2210505;81;20949;-61
2021/07/30 08:33:49;;;;;;;17.20;5.33;;;;;;;26.81;40.55;98475.00;2210715;81;21004;-62
2021/07/30 08:36:49;;;;;;;16.53;5.30;;;;;;;26.95;39.54;98465.03;2210698;80;21013;-62
2021/07/30 08:39:50;;;;;;;15.63;5.20;;;;;;;27.07;40.06;98471.98;2210739;81;20988;-68
2021/07/30 08:42:50;;;;;;;21.07;5.43;;;;;;;27.15;37.55;98470.39;2210648;81;20965;-67
2021/07/30 08:45:51;;;;;;;16.60;5.00;;;;;;;27.23;39.28;98461.28;2210479;81;20993;-60
2021/07/30 08:48:51;;;;;;;15.07;4.87;;;;;;;27.23;38.89;98458.59;2210568;81;21527;-72
2021/07/30 08:51:52;;;;;;;17.33;5.20;;;;;;;27.31;38.48;98459.20;2210762;81;20968;-65
2021/07/30 08:54:52;;;;;;;19.23;5.47;;;;;;;27.17;39.11;98464.30;2210629;81;20972;-71
2021/07/30 08:57:53;;;;;;;15.20;4.93;;;;;;;27.37;38.64;98454.02;2210762;81;21009;-61
2021/07/30 09:00:54;;;;;;;14.65;5.22;;;;;;;27.64;37.87;98445.33;2210039;81;21001;-72
2021/07/30 09:03:54;;;;;;;18.17;5.53;;;;;;;27.64;36.21;98469.57;2210586;81;21020;-69
2021/07/30 09:06:55;;;;;;;16.13;4.67;;;;;;;27.52;36.11;98453.25;2210594;81;21499;-61
2021/07/30 09:09:55;;;;;;;14.47;4.70;;;;;;;27.55;35.18;98455.52;2210414;81;21519;-74
2021/07/30 09:12:57;;;;;;;15.32;4.78;;;;;;;27.06;36.30;98455.52;2209934;81;22242;-70
2021/07/30 09:15:57;;;;;;;15.60;5.03;;;;;;;27.20;38.60;98451.77;2210482;81;21085;-61
2021/07/30 09:18:58;;;;;;;22.23;5.43;;;;;;;27.20;36.82;98459.84;2210569;81;20969;-69
2021/07/30 09:21:58;;;;;;;19.17;5.83;;;;;;;27.00;36.39;98461.22;2210591;81;20965;-68
2021/07/30 09:24:59;;;;;;;17.07;5.17;;;;;;;27.05;38.13;98453.35;2210522;81;21040;-65
2021/07/30 09:27:59;;;;;;;17.20;5.13;;;;;;;27.52;38.19;98433.59;2210579;81;21484;-61
2021/07/30 09:31:00;;;;;;;14.70;5.10;;;;;;;27.83;36.82;98435.53;2210450;81;20972;-63
2021/07/30 09:34:00;;;;;;;18.07;5.00;;;;;;;27.83;35.91;98444.42;2210649;81;21043;-70
2021/07/30 09:37:01;;;;;;;15.50;4.60;;;;;;;27.13;36.84;98432.11;2210645;80;21056;-61
2021/07/30 09:40:02;;;;;;;14.90;5.00;;;;;;;27.24;39.20;98434.16;2210598;81;20976;-61
2021/07/30 09:43:03;;;;;;;;;;;;;;;26.91;37.18;98430.16;2212894;81;21024;-65
2021/07/30 09:46:03;;;;;;;15.97;5.07;;;;;;;27.14;39.67;98433.77;2210728;80;20096;-67
2021/07/30 09:49:04;;;;;;;21.10;4.77;;;;;;;27.29;38.67;98426.78;2210855;81;21307;-62
2021/07/30 09:52:04;;;;;;;18.00;5.53;;;;;;;27.22;38.11;98429.48;2210695;81;21000;-63
2021/07/30 09:55:05;;;;;;;15.97;5.03;;;;;;;26.82;37.90;98436.27;2210209;81;21075;-67
2021/07/30 09:58:06;;;;;;;18.30;5.10;;;;;;;26.64;38.09;98426.13;2210481;81;21448;-71
2021/07/30 10:01:06;;;;;;;19.07;5.13;;;;;;;26.87;38.86;98414.97;2210551;81;21008;-67
2021/07/30 10:04:07;;;;;;;14.77;5.00;;;;;;;27.36;37.84;98423.59;2210477;81;21016;-71
2021/07/30 10:07:07;;;;;;;15.70;5.10;;;;;;;27.38;37.02;98420.15;2210721;81;20980;-61
2021/07/30 10:13:14;;;;;;;14.60;4.80;;;;;;;27.46;36.07;98411.84;2188684;81;20977;-61
2021/07/30 10:16:12;;;;;;;14.65;4.83;;;;;;;27.72;37.59;98408.73;2188658;81;20969;-60
2021/07/30 10:19:13;;;;;;;15.57;5.27;;;;;;;27.87;35.32;98404.42;2210618;81;20992;-67
2021/07/30 10:22:14;;;;;;;13.30;4.70;;;;;;;27.87;35.32;98404.42;2210584;81;21519;-66
2021/07/30 10:25:14;;;;;;;13.62;4.50;;;;;;;28.12;36.77;98388.32;2210292;81;21004;-61
2021/07/30 10:28:15;;;;;;;14.60;4.77;;;;;;;28.36;35.48;98400.70;2210822;81;21020;-61
2021/07/30 10:31:15;;;;;;;14.40;4.77;;;;;;;28.49;36.16;98387.64;2210444;81;21005;-68
2021/07/30 10:34:16;;;;;;;15.40;5.00;;;;;;;28.49;35.51;98384.95;2210817;81;21031;-66
2021/07/30 10:37:17;;;;;;;18.55;5.03;;;;;;;28.73;36.06;98372.49;2216074;80;21428;-62
2021/07/30 10:40:17;;;;;;;15.40;5.10;;;;;;;29.25;34.60;98380.30;2220695;80;21055;-60
2021/07/30 10:43:18;;;;;;;14.33;4.83;;;;;;;29.11;33.34;98383.64;2220923;80;21472;-61
2021/07/30 10:46:19;;;;;;;13.98;4.67;;;;;;;28.96;35.22;98373.19;2220583;80;21590;-62
2021/07/30 10:49:19;;;;;;;16.07;5.17;;;;;;;29.08;33.06;98372.45;2221142;80;21038;-66
2021/07/30 10:52:20;;;;;;;17.63;4.77;;;;;;;28.00;33.84;98368.48;2221292;80;20972;-62
2021/07/30 10:55:20;;;;;;;14.40;4.87;;;;;;;27.95;35.39;98367.77;2221111;80;20972;-63
2021/07/30 10:58:21;;;;;;;16.20;5.25;;;;;;;28.56;34.01;98357.89;2220573;80;21035;-66
2021/07/30 11:01:22;;;;;;;12.80;4.47;;;;;;;28.75;34.25;98350.17;2221147;80;21534;-61
2021/07/30 11:04:23;;;;;;;15.13;4.90;;;;;;;28.45;34.43;98358.11;2220756;80;21028;-61
2021/07/30 11:07:24;;;;;;;15.60;5.12;;;;;;;28.20;34.87;98375.62;2220819;80;21023;-63
2021/07/30 11:10:24;;;;;;;13.37;4.80;;;;;;;28.45;33.46;98350.83;2221371;80;20983;-70
2021/07/30 11:13:24;;;;;;;16.73;4.83;;;;;;;28.62;33.27;98352.98;2221103;80;20992;-61
2021/07/30 11:16:25;;;;;;;16.07;4.77;;;;;;;28.58;32.79;98369.30;2221499;80;20957;-61
2021/07/30 11:19:25;;;;;;;14.90;4.60;;;;;;;28.32;33.81;98357.70;2221117;80;20925;-64
2021/07/30 11:22:26;;;;;;;13.63;4.77;;;;;;;28.55;33.28;98333.31;2220990;80;20937;-73
2021/07/30 11:25:27;;;;;;;;;;;;;;;28.97;34.12;98334.36;2223363;80;21064;-64
2021/07/30 11:28:28;;;;;;;13.53;4.50;;;;;;;29.08;33.74;98336.84;2221293;80;20103;-68
2021/07/30 11:31:28;;;;;;;13.40;4.70;;;;;;;29.06;34.02;98340.82;2220915;80;20976;-70
2021/07/30 11:34:29;;;;;;;14.93;4.97;;;;;;;29.01;32.21;98350.41;2220880;80;20992;-62
2021/07/30 11:37:30;;;;;;;12.15;4.50;;;;;;;29.00;33.60;98338.49;2220916;80;21023;-62
2021/07/30 11:40:34;;;;;;;;;;;;;;;29.15;34.04;98324.09;2223569;80;21079;-69
2021/07/30 11:43:33;;;;;;;13.78;5.00;;;;;;;29.29;33.16;98315.31;2193138;80;20126;-62
2021/07/30 11:46:33;;;;;;;17.27;4.90;;;;;;;28.97;33.28;98322.22;2221271;80;20987;-68
2021/07/30 11:49:34;;;;;;;17.60;4.93;;;;;;;28.75;33.26;98325.89;2221297;80;20991;-61
2021/07/30 11:52:37;;;;;;;14.83;4.90;;;;;;;28.58;34.25;98344.50;2221432;80;20979;-71
2021/07/30 11:55:37;;;;;;;12.98;4.62;;;;;;;28.65;33.15;98314.27;2192892;80;21479;-63
2021/07/30 11:58:37;;;;;;;13.67;4.80;;;;;;;28.93;33.47;98316.97;2221456;80;21016;-64
2021/07/30 12:01:37;;;;;;;16.83;5.20;;;;;;;29.23;32.62;98307.32;2221509;80;21040;-67
2021/07/30 12:04:38;;;;;;;11.40;4.50;;;;;;;29.03;31.82;98318.64;2221285;80;21066;-70
2021/07/30 12:07:40;;;;;;;14.17;5.10;;;;;;;28.97;34.03;98310.07;2221600;80;21013;-62
2021/07/30 12:10:41;;;;;;;16.93;5.08;;;;;;;29.33;33.83;98304.36;2220960;80;20992;-70
2021/07/30 12:13:41;;;;;;;14.20;4.72;;;;;;;29.80;32.07;98309.12;2221247;80;20984;-72
2021/07/30 12:16:42;;;;;;;13.30;4.60;;;;;;;29.99;32.20;98293.67;2221573;80;21025;-61
2021/07/30 12:19:42;;;;;;;14.27;4.63;;;;;;;29.71;29.26;98305.08;2221219;80;20968;-67
2021/07/30 12:22:43;;;;;;;14.13;4.62;;;;;;;29.67;30.45;98306.63;2221160;80;21027;-61
2021/07/30 12:28:46;;;;;;;14.68;4.75;;;;;;;29.38;32.68;98297.77;2192830;80;21083;-61
2021/07/30 12:31:47;;;;;;;15.63;4.87;;;;;;;29.73;32.17;98286.23;2221267;80;21482;-62
2021/07/30 12:34:48;;;;;;;14.65;4.90;;;;;;;29.74;30.90;98300.59;2220988;80;21028;-65
2021/07/30 12:37:48;;;;;;;13.70;4.90;;;;;;;29.53;30.76;98297.33;2215103;80;20981;-61
2021/07/30 12:40:49;;;;;;;;;;;;;;;29.78;31.11;98295.00;2212632;81;21073;-66
2021/07/30 12:43:50;;;;;;;13.23;4.43;;;;;;;29.55;31.38;98291.20;2210758;80;20391;-70
2021/07/30 12:46:52;;;;;;;12.93;4.53;;;;;;;29.91;32.63;98275.62;2210210;81;21011;-63
2021/07/30 12:49:52;;;;;;;11.10;4.17;;;;;;;30.09;30.54;98284.18;2210403;81;21005;-64
2021/07/30 12:52:53;;;;;;;10.93;4.50;;;;;;;29.77;30.92;98274.96;2210293;81;21471;-66
2021/07/30 12:55:54;;;;;;;14.83;4.62;;;;;;;29.47;30.51;98282.05;2210454;81;21037;-66
2021/07/30 12:58:56;;;;;;;13.47;4.27;;;;;;;29.49;31.38;98260.22;2210916;81;21007;-63
2021/07/30 13:02:05;;;;;;;16.02;4.90;;;;;;;29.65;30.58;98263.63;2210364;81;20997;-65
2021/07/30 13:05:08;;;;;;;12.95;5.05;;;;;;;30.15;31.15;98252.95;2210339;81;20961;-67
2021/07/30 13:08:08;;;;;;;13.28;4.50;;;;;;;30.80;31.02;98247.08;2188887;81;21059;-68
2021/07/30 13:11:09;;;;;;;12.50;4.45;;;;;;;31.01;30.43;98252.42;2210531;81;20977;-61
2021/07/30 13:14:09;;;;;;;12.20;4.63;;;;;;;30.99;29.65;98249.11;2210571;81;20961;-65
2021/07/30 13:17:10;;;;;;;10.80;4.20;;;;;;;30.65;29.21;98254.91;2210613;81;21016;-62
2021/07/30 13:20:10;;;;;;;13.57;5.07;;;;;;;30.42;29.47;98268.75;2210628;81;21460;-62
2021/07/30 13:23:11;;;;;;;14.47;4.90;;;;;;;30.36;30.83;98249.38;2210615;81;21997;-64
2021/07/30 13:26:12;;;;;;;13.07;4.63;;;;;;;30.31;29.74;98239.25;2210482;81;21008;-62
2021/07/30 13:29:12;;;;;;;14.80;4.87;;;;;;;30.62;29.23;98237.25;2210630;81;20981;-64
2021/07/30 13:32:13;;;;;;;13.78;4.47;;;;;;;30.38;30.21;98238.59;2210584;81;20969;-61
2021/07/30 13:35:13;;;;;;;13.43;4.60;;;;;;;30.30;30.05;98244.89;2210684;81;20981;-64
2021/07/30 13:38:14;;;;;;;15.73;4.90;;;;;;;30.20;29.96;98227.94;2210176;81;20957;-65
2021/07/30 13:41:15;;;;;;;;;;;;;;;30.29;29.79;98237.32;2212682;81;21100;-62
2021/07/30 13:44:15;;;;;;;13.17;4.60;;;;;;;30.23;30.17;98230.16;2210548;80;20088;-66
2021/07/30 13:47:16;;;;;;;16.83;5.00;;;;;;;30.51;31.69;98219.97;2210568;81;20968;-61
2021/07/30 13:50:16;;;;;;;14.60;4.53;;;;;;;30.97;29.77;98209.26;2210831;81;20969;-63
2021/07/30 13:53:17;;;;;;;13.57;4.23;;;;;;;30.77;29.59;98219.15;2210394;81;21065;-61
2021/07/30 13:56:17;;;;;;;13.22;4.87;;;;;;;30.77;28.94;98206.97;2210479;81;20961;-62
2021/07/30 13:59:18;;;;;;;15.17;4.47;;;;;;;30.97;30.13;98207.09;2210576;81;20961;-71
2021/07/30 14:02:18;;;;;;;14.00;5.00;;;;;;;30.41;30.80;98211.61;2210578;81;20961;-65
2021/07/30 14:05:18;;;;;;;13.83;4.57;;;;;;;30.13;31.01;98206.92;2210535;81;21464;-63
2021/07/30 14:08:19;;;;;;;15.67;5.10;;;;;;;30.52;30.36;98201.33;2210894;81;21541;-62